sensor_id;sensor_type;location;lat;lon;timestamp;P1;durP1;ratioP1;P2;durP2;ratioP2
57323;SDS011;43160;51.008;18.248;2023-02-28T00:03:12;30.80;;;12.10;;
57323;SDS011;43160;51.008;18.248;2023-02-28T00:12:59;17.50;;;8.10;;
57323;SDS011;43160;51.008;18.248;2023-02-28T00:22:44;28.40;;;9.80;;
57323;SDS011;43160;51.008;18.248;2023-02-28T00:32:31;19.10;;;7.70;;
57323;SDS011;43160;51.008;18.248;2023-02-28T00:42:15;29.00;;;9.10;;
57323;SDS011;43160;51.008;18.248;2023-02-28T00:51:58;26.50;;;9.60;;
57323;SDS011;43160;51.008;18.248;2023-02-28T01:01:42;24.80;;;10.40;;
57323;SDS011;43160;51.008;18.248;2023-02-28T01:11:27;29.60;;;10.00;;
57323;SDS011;43160;51.008;18.248;2023-02-28T01:21:11;29.60;;;8.40;;
57323;SDS011;43160;51.008;18.248;2023-02-28T01:30:57;29.10;;;11.40;;
57323;SDS011;43160;51.008;18.248;2023-02-28T01:40:40;23.90;;;8.30;;
57323;SDS011;43160;51.008;18.248;2023-02-28T01:50:40;21.90;;;6.60;;
57323;SDS011;43160;51.008;18.248;2023-02-28T02:00:28;26.60;;;8.70;;
57323;SDS011;43160;51.008;18.248;2023-02-28T02:10:17;24.00;;;8.40;;
57323;SDS011;43160;51.008;18.248;2023-02-28T02:20:58;25.10;;;8.20;;
57323;SDS011;43160;51.008;18.248;2023-02-28T02:41:51;26.20;;;10.00;;
57323;SDS011;43160;51.008;18.248;2023-02-28T02:52:01;34.10;;;11.90;;
57323;SDS011;43160;51.008;18.248;2023-02-28T03:01:50;27.90;;;8.60;;
57323;SDS011;43160;51.008;18.248;2023-02-28T03:11:36;27.70;;;11.10;;
57323;SDS011;43160;51.008;18.248;2023-02-28T03:22:14;17.30;;;6.80;;
57323;SDS011;43160;51.008;18.248;2023-02-28T03:32:40;30.10;;;9.20;;
57323;SDS011;43160;51.008;18.248;2023-02-28T03:42:39;17.80;;;7.10;;
57323;SDS011;43160;51.008;18.248;2023-02-28T04:00:28;25.60;;;8.00;;
57323;SDS011;43160;51.008;18.248;2023-02-28T04:10:17;32.90;;;9.60;;
57323;SDS011;43160;51.008;18.248;2023-02-28T04:17:35;94.40;;;31.70;;
57323;SDS011;43160;51.008;18.248;2023-02-28T04:27:20;46.40;;;11.20;;
57323;SDS011;43160;51.008;18.248;2023-02-28T04:37:04;31.00;;;10.30;;
57323;SDS011;43160;51.008;18.248;2023-02-28T04:46:51;29.10;;;10.40;;
57323;SDS011;43160;51.008;18.248;2023-02-28T04:56:34;41.40;;;13.50;;
57323;SDS011;43160;51.008;18.248;2023-02-28T05:06:23;47.40;;;12.90;;
57323;SDS011;43160;51.008;18.248;2023-02-28T05:16:09;16.50;;;5.70;;
57323;SDS011;43160;51.008;18.248;2023-02-28T05:25:53;23.20;;;8.40;;
57323;SDS011;43160;51.008;18.248;2023-02-28T05:35:38;26.80;;;8.40;;
57323;SDS011;43160;51.008;18.248;2023-02-28T05:45:22;24.30;;;8.30;;
57323;SDS011;43160;51.008;18.248;2023-02-28T05:55:06;24.30;;;7.60;;
57323;SDS011;43160;51.008;18.248;2023-02-28T06:04:49;28.90;;;9.40;;
57323;SDS011;43160;51.008;18.248;2023-02-28T06:14:35;19.00;;;7.00;;
57323;SDS011;43160;51.008;18.248;2023-02-28T06:24:20;36.40;;;11.70;;
57323;SDS011;43160;51.008;18.248;2023-02-28T06:34:13;29.90;;;9.60;;
57323;SDS011;43160;51.008;18.248;2023-02-28T06:43:56;32.10;;;5.40;;
57323;SDS011;43160;51.008;18.248;2023-02-28T06:53:41;88.50;;;19.60;;
57323;SDS011;43160;51.008;18.248;2023-02-28T07:03:25;56.60;;;17.30;;
57323;SDS011;43160;51.008;18.248;2023-02-28T07:13:08;46.30;;;18.30;;
57323;SDS011;43160;51.008;18.248;2023-02-28T07:22:52;44.10;;;19.00;;
57323;SDS011;43160;51.008;18.248;2023-02-28T07:27:48;90.90;;;38.60;;
57323;SDS011;43160;51.008;18.248;2023-02-28T07:37:31;59.40;;;20.20;;
57323;SDS011;43160;51.008;18.248;2023-02-28T07:47:26;37.40;;;13.30;;
57323;SDS011;43160;51.008;18.248;2023-02-28T07:57:09;20.50;;;7.70;;
57323;SDS011;43160;51.008;18.248;2023-02-28T08:06:52;27.20;;;7.30;;
57323;SDS011;43160;51.008;18.248;2023-02-28T08:16:36;16.30;;;6.80;;
57323;SDS011;43160;51.008;18.248;2023-02-28T08:26:20;14.30;;;5.20;;
57323;SDS011;43160;51.008;18.248;2023-02-28T08:36:04;15.10;;;4.50;;
57323;SDS011;43160;51.008;18.248;2023-02-28T08:45:51;21.90;;;6.40;;
57323;SDS011;43160;51.008;18.248;2023-02-28T08:55:35;20.80;;;6.90;;
57323;SDS011;43160;51.008;18.248;2023-02-28T09:05:18;19.40;;;8.80;;
57323;SDS011;43160;51.008;18.248;2023-02-28T09:15:02;16.50;;;6.50;;
57323;SDS011;43160;51.008;18.248;2023-02-28T09:24:46;18.90;;;7.30;;
57323;SDS011;43160;51.008;18.248;2023-02-28T09:34:31;18.50;;;7.80;;
57323;SDS011;43160;51.008;18.248;2023-02-28T09:44:24;15.70;;;5.30;;
57323;SDS011;43160;51.008;18.248;2023-02-28T09:54:18;15.90;;;6.20;;
57323;SDS011;43160;51.008;18.248;2023-02-28T10:14:35;15.10;;;5.70;;
57323;SDS011;43160;51.008;18.248;2023-02-28T10:24:30;16.20;;;6.60;;
57323;SDS011;43160;51.008;18.248;2023-02-28T10:34:24;23.90;;;8.50;;
57323;SDS011;43160;51.008;18.248;2023-02-28T10:44:28;16.80;;;5.70;;
57323;SDS011;43160;51.008;18.248;2023-02-28T10:54:19;24.60;;;7.30;;
57323;SDS011;43160;51.008;18.248;2023-02-28T11:14:27;18.70;;;9.00;;
57323;SDS011;43160;51.008;18.248;2023-02-28T11:24:34;17.20;;;7.50;;
57323;SDS011;43160;51.008;18.248;2023-02-28T11:34:26;18.50;;;8.10;;
57323;SDS011;43160;51.008;18.248;2023-02-28T11:52:19;22.40;;;9.70;;
57323;SDS011;43160;51.008;18.248;2023-02-28T12:21:28;20.00;;;9.00;;
57323;SDS011;43160;51.008;18.248;2023-02-28T12:31:36;16.90;;;9.50;;
57323;SDS011;43160;51.008;18.248;2023-02-28T12:41:51;15.50;;;7.80;;
57323;SDS011;43160;51.008;18.248;2023-02-28T12:51:41;18.90;;;8.30;;
57323;SDS011;43160;51.008;18.248;2023-02-28T13:12:51;18.60;;;9.90;;
57323;SDS011;43160;51.008;18.248;2023-02-28T13:22:52;15.50;;;8.50;;
57323;SDS011;43160;51.008;18.248;2023-02-28T13:33:32;16.00;;;9.50;;
57323;SDS011;43160;51.008;18.248;2023-02-28T14:22:51;20.60;;;13.40;;
57323;SDS011;43160;51.008;18.248;2023-02-28T14:43:21;18.20;;;10.70;;
57323;SDS011;43160;51.008;18.248;2023-02-28T14:48:15;23.00;;;14.70;;
57323;SDS011;43160;51.008;18.248;2023-02-28T14:58:04;21.90;;;13.60;;
57323;SDS011;43160;51.008;18.248;2023-02-28T15:08:16;19.20;;;11.90;;
57323;SDS011;43160;51.008;18.248;2023-02-28T15:18:07;22.50;;;12.60;;
57323;SDS011;43160;51.008;18.248;2023-02-28T15:27:57;20.70;;;10.00;;
57323;SDS011;43160;51.008;18.248;2023-02-28T15:38:18;21.70;;;9.00;;
57323;SDS011;43160;51.008;18.248;2023-02-28T15:48:37;16.20;;;7.80;;
57323;SDS011;43160;51.008;18.248;2023-02-28T15:58:57;27.90;;;9.90;;
57323;SDS011;43160;51.008;18.248;2023-02-28T16:08:56;21.10;;;8.20;;
57323;SDS011;43160;51.008;18.248;2023-02-28T16:18:47;22.70;;;7.40;;
57323;SDS011;43160;51.008;18.248;2023-02-28T16:28:31;18.80;;;6.90;;
57323;SDS011;43160;51.008;18.248;2023-02-28T16:38:17;17.80;;;7.30;;
57323;SDS011;43160;51.008;18.248;2023-02-28T16:48:12;26.80;;;8.60;;
57323;SDS011;43160;51.008;18.248;2023-02-28T16:57:58;21.10;;;7.10;;
57323;SDS011;43160;51.008;18.248;2023-02-28T17:07:45;33.80;;;12.80;;
57323;SDS011;43160;51.008;18.248;2023-02-28T17:17:33;29.90;;;10.70;;
57323;SDS011;43160;51.008;18.248;2023-02-28T17:27:21;27.80;;;8.60;;
57323;SDS011;43160;51.008;18.248;2023-02-28T17:37:04;19.70;;;6.10;;
57323;SDS011;43160;51.008;18.248;2023-02-28T17:46:49;21.00;;;7.90;;
57323;SDS011;43160;51.008;18.248;2023-02-28T17:56:33;24.00;;;8.90;;
57323;SDS011;43160;51.008;18.248;2023-02-28T18:06:20;26.40;;;9.80;;
57323;SDS011;43160;51.008;18.248;2023-02-28T18:16:13;27.30;;;8.90;;
57323;SDS011;43160;51.008;18.248;2023-02-28T18:25:57;17.60;;;7.70;;
57323;SDS011;43160;51.008;18.248;2023-02-28T18:35:41;33.60;;;12.20;;
57323;SDS011;43160;51.008;18.248;2023-02-28T18:45:32;36.30;;;12.70;;
57323;SDS011;43160;51.008;18.248;2023-02-28T18:55:18;36.00;;;10.90;;
57323;SDS011;43160;51.008;18.248;2023-02-28T19:05:03;32.10;;;11.80;;
57323;SDS011;43160;51.008;18.248;2023-02-28T19:14:47;39.00;;;14.10;;
57323;SDS011;43160;51.008;18.248;2023-02-28T19:24:31;29.50;;;10.60;;
57323;SDS011;43160;51.008;18.248;2023-02-28T19:34:14;26.10;;;9.40;;
57323;SDS011;43160;51.008;18.248;2023-02-28T19:43:58;28.10;;;10.30;;
57323;SDS011;43160;51.008;18.248;2023-02-28T19:53:45;34.30;;;10.80;;
57323;SDS011;43160;51.008;18.248;2023-02-28T20:03:32;26.10;;;10.70;;
57323;SDS011;43160;51.008;18.248;2023-02-28T20:13:16;29.30;;;8.90;;
57323;SDS011;43160;51.008;18.248;2023-02-28T20:23:02;51.10;;;12.90;;
57323;SDS011;43160;51.008;18.248;2023-02-28T20:32:49;47.00;;;13.60;;
57323;SDS011;43160;51.008;18.248;2023-02-28T20:42:34;54.10;;;15.40;;
57323;SDS011;43160;51.008;18.248;2023-02-28T20:52:17;31.50;;;11.40;;
57323;SDS011;43160;51.008;18.248;2023-02-28T21:02:00;41.80;;;14.90;;
57323;SDS011;43160;51.008;18.248;2023-02-28T21:11:43;45.60;;;15.60;;
57323;SDS011;43160;51.008;18.248;2023-02-28T21:21:49;58.90;;;13.90;;
57323;SDS011;43160;51.008;18.248;2023-02-28T21:31:35;46.20;;;12.80;;
57323;SDS011;43160;51.008;18.248;2023-02-28T21:41:24;47.10;;;13.10;;
57323;SDS011;43160;51.008;18.248;2023-02-28T21:51:10;49.70;;;14.70;;
57323;SDS011;43160;51.008;18.248;2023-02-28T22:01:06;47.10;;;14.50;;
57323;SDS011;43160;51.008;18.248;2023-02-28T22:10:50;78.60;;;18.10;;
57323;SDS011;43160;51.008;18.248;2023-02-28T22:20:33;58.40;;;14.30;;
57323;SDS011;43160;51.008;18.248;2023-02-28T22:30:16;48.20;;;14.10;;
57323;SDS011;43160;51.008;18.248;2023-02-28T22:40:00;51.80;;;16.10;;
57323;SDS011;43160;51.008;18.248;2023-02-28T22:49:44;52.10;;;18.50;;
57323;SDS011;43160;51.008;18.248;2023-02-28T22:59:28;52.60;;;14.70;;
57323;SDS011;43160;51.008;18.248;2023-02-28T23:09:16;36.40;;;13.00;;
57323;SDS011;43160;51.008;18.248;2023-02-28T23:19:08;45.20;;;14.00;;
57323;SDS011;43160;51.008;18.248;2023-02-28T23:29:02;27.90;;;11.30;;
57323;SDS011;43160;51.008;18.248;2023-02-28T23:38:47;37.30;;;13.10;;
57323;SDS011;43160;51.008;18.248;2023-02-28T23:48:32;38.10;;;11.90;;
57323;SDS011;43160;51.008;18.248;2023-02-28T23:58:28;41.80;;;12.20;;
